createdAt,value
2023-06-25T00:00:33.013Z,42.26
2023-06-25T00:03:06.275Z,42.16
2023-06-25T00:05:39.038Z,41.95
2023-06-25T00:08:12.104Z,41.92
2023-06-25T00:10:45.296Z,41.82
2023-06-25T00:13:19.170Z,41.34
2023-06-25T00:15:51.877Z,41.17
2023-06-25T00:18:25.035Z,41.11
2023-06-25T00:20:57.749Z,41.15
2023-06-25T00:23:31.048Z,41.04
2023-06-25T00:26:04.065Z,41.15
2023-06-25T00:28:37.221Z,41.20
2023-06-25T00:31:11.314Z,41.20
2023-06-25T00:33:45.174Z,41.13
2023-06-25T00:36:17.944Z,41.07
2023-06-25T00:38:51.130Z,41.30
2023-06-25T00:41:24.144Z,41.13
2023-06-25T00:43:57.070Z,41.17
2023-06-25T00:46:30.072Z,41.10
2023-06-25T00:49:02.875Z,41.20
2023-06-25T00:51:36.072Z,41.19
2023-06-25T00:54:09.185Z,41.07
2023-06-25T00:56:42.165Z,41.15
2023-06-25T00:59:14.847Z,41.19
2023-06-25T01:01:48.072Z,41.05
2023-06-25T01:04:21.209Z,40.89
2023-06-25T01:06:54.255Z,41.15
2023-06-25T01:09:27.302Z,41.25
2023-06-25T01:12:00.842Z,41.09
2023-06-25T01:14:34.135Z,41.02
2023-06-25T01:17:07.192Z,41.01
2023-06-25T01:19:40.369Z,40.96
2023-06-25T01:22:14.199Z,40.93
2023-06-25T01:24:47.238Z,40.93
2023-06-25T01:27:34.085Z,40.84
2023-06-25T01:30:07.260Z,40.81
2023-06-25T01:32:40.261Z,40.80
2023-06-25T01:35:13.364Z,40.85
2023-06-25T01:37:47.183Z,40.96
2023-06-25T01:40:20.309Z,40.77
2023-06-25T01:42:53.217Z,40.89
2023-06-25T01:45:26.194Z,40.84
2023-06-25T01:47:59.387Z,40.87
2023-06-25T01:50:33.151Z,40.73
2023-06-25T01:53:06.278Z,40.74
2023-06-25T01:55:39.746Z,40.85
2023-06-25T01:58:13.384Z,40.75
2023-06-25T02:00:46.317Z,40.75
2023-06-25T02:03:19.364Z,40.75
2023-06-25T02:05:52.328Z,40.74
2023-06-25T02:08:25.428Z,40.75
2023-06-25T02:10:59.207Z,40.72
2023-06-25T02:13:32.194Z,40.70
2023-06-25T02:16:04.971Z,40.88
2023-06-25T02:18:38.230Z,40.78
2023-06-25T02:21:11.235Z,40.78
2023-06-25T02:23:44.486Z,40.74
2023-06-25T02:26:18.278Z,40.72
2023-06-25T02:28:51.274Z,40.75
2023-06-25T02:31:24.521Z,40.69
2023-06-25T02:33:58.237Z,40.75
2023-06-25T02:36:31.330Z,40.75
2023-06-25T02:39:04.211Z,40.82
2023-06-25T02:41:36.945Z,40.86
2023-06-25T02:44:10.263Z,40.92
2023-06-25T02:46:43.328Z,41.11
2023-06-25T02:49:16.519Z,40.80
2023-06-25T02:51:50.337Z,40.78
2023-06-25T02:54:23.599Z,40.76
2023-06-25T02:56:57.237Z,40.65
2023-06-25T02:59:30.362Z,40.73
2023-06-25T03:02:03.117Z,40.58
2023-06-25T03:04:36.254Z,40.59
2023-06-25T03:07:09.374Z,40.63
2023-06-25T03:09:42.029Z,40.65
2023-06-25T03:12:15.289Z,40.59
2023-06-25T03:14:48.365Z,40.67
2023-06-25T03:17:21.455Z,40.69
2023-06-25T03:19:54.408Z,40.72
2023-06-25T03:22:27.324Z,40.70
2023-06-25T03:25:00.046Z,40.79
2023-06-25T03:27:33.478Z,40.78
2023-06-25T03:30:07.420Z,40.90
2023-06-25T03:32:40.325Z,40.73
2023-06-25T03:35:13.453Z,40.69
2023-06-25T03:37:46.435Z,40.69
2023-06-25T03:40:19.166Z,40.71
2023-06-25T03:42:52.511Z,40.72
2023-06-25T03:45:26.470Z,40.73
2023-06-25T03:47:59.389Z,40.70
2023-06-25T03:50:32.538Z,40.71
2023-06-25T03:53:06.418Z,40.94
2023-06-25T03:55:39.574Z,40.92
2023-06-25T03:58:12.416Z,40.84
2023-06-25T04:00:51.355Z,40.93
2023-06-25T04:03:24.508Z,40.94
2023-06-25T04:05:57.354Z,40.98
2023-06-25T04:08:30.339Z,41.07
2023-06-25T04:11:03.502Z,40.98
2023-06-25T04:13:36.370Z,40.88
2023-06-25T04:16:09.487Z,41.05
2023-06-25T04:18:42.389Z,40.99
2023-06-25T04:21:15.388Z,40.97
2023-06-25T04:23:48.403Z,41.04
2023-06-25T04:26:27.469Z,41.08
2023-06-25T04:29:00.621Z,41.14
2023-06-25T04:31:34.606Z,41.26
2023-06-25T04:34:08.459Z,41.37
2023-06-25T04:36:41.144Z,41.25
2023-06-25T04:39:14.508Z,41.34
2023-06-25T04:41:47.497Z,41.28
2023-06-25T04:44:20.440Z,41.45
2023-06-25T04:46:53.265Z,41.39
2023-06-25T04:49:26.288Z,41.36
2023-06-25T04:51:59.537Z,41.51
2023-06-25T04:54:32.140Z,41.64
2023-06-25T04:57:05.451Z,41.69
2023-06-25T04:59:52.454Z,41.77
2023-06-25T05:02:25.596Z,41.69
2023-06-25T05:04:58.180Z,41.75
2023-06-25T05:07:31.516Z,41.79
2023-06-25T05:10:04.180Z,41.76
2023-06-25T05:12:37.579Z,41.85
2023-06-25T05:15:10.474Z,41.89
2023-06-25T05:17:43.568Z,42.04
2023-06-25T05:20:16.535Z,42.21
2023-06-25T05:22:49.526Z,42.19
2023-06-25T05:25:22.574Z,42.28
2023-06-25T05:27:55.455Z,42.21
2023-06-25T05:30:28.540Z,42.17
2023-06-25T05:33:01.755Z,42.21
2023-06-25T05:35:34.794Z,42.27
2023-06-25T05:38:07.271Z,42.18
2023-06-25T05:40:40.491Z,42.28
2023-06-25T05:43:13.558Z,42.20
2023-06-25T05:45:46.482Z,42.32
2023-06-25T05:48:19.635Z,42.38
2023-06-25T05:50:52.497Z,42.29
2023-06-25T05:53:25.337Z,42.29
2023-06-25T05:55:58.511Z,42.27
2023-06-25T05:58:31.605Z,42.29
2023-06-25T06:01:04.406Z,42.34
2023-06-25T06:03:37.402Z,42.47
2023-06-25T06:06:10.601Z,42.47
2023-06-25T06:08:43.490Z,42.53
2023-06-25T06:11:16.360Z,42.48
2023-06-25T06:13:49.521Z,42.49
2023-06-25T06:16:22.405Z,42.50
2023-06-25T06:18:55.317Z,42.61
2023-06-25T06:21:28.646Z,42.51
2023-06-25T06:24:01.417Z,42.56
2023-06-25T06:26:34.368Z,42.63
2023-06-25T06:29:07.422Z,42.56
2023-06-25T06:31:40.435Z,42.56
2023-06-25T06:34:13.307Z,42.59
2023-06-25T06:36:46.308Z,42.59
2023-06-25T06:39:19.519Z,42.66
2023-06-25T06:41:52.315Z,42.68
2023-06-25T06:44:25.311Z,42.72
2023-06-25T06:47:04.223Z,42.74
2023-06-25T06:49:37.556Z,42.70
2023-06-25T06:52:10.474Z,42.74
2023-06-25T06:54:43.321Z,42.73
2023-06-25T06:57:22.387Z,42.68
2023-06-25T06:59:55.322Z,42.75
2023-06-25T07:02:28.533Z,42.74
2023-06-25T07:05:01.378Z,42.75
2023-06-25T07:07:34.549Z,42.71
2023-06-25T07:10:07.470Z,42.71
2023-06-25T07:12:40.456Z,42.80
2023-06-25T07:15:13.447Z,42.71
2023-06-25T07:17:46.400Z,42.73
2023-06-25T07:20:19.459Z,42.73
2023-06-25T07:22:52.358Z,42.86
2023-06-25T07:25:25.548Z,42.89
2023-06-25T07:28:12.429Z,42.81
2023-06-25T07:30:45.386Z,42.85
2023-06-25T07:33:18.484Z,42.92
2023-06-25T07:35:51.409Z,42.92
2023-06-25T07:38:24.494Z,42.88
2023-06-25T07:40:57.479Z,42.92
2023-06-25T07:43:30.498Z,42.92
2023-06-25T07:46:03.552Z,42.93
2023-06-25T07:48:36.560Z,42.89
2023-06-25T07:51:09.442Z,42.96
2023-06-25T07:53:42.571Z,42.87
2023-06-25T07:56:15.602Z,42.89
2023-06-25T07:59:02.478Z,42.95
2023-06-25T08:01:35.594Z,42.95
2023-06-25T08:04:08.861Z,43.01
2023-06-25T08:06:41.790Z,43.06
2023-06-25T08:09:14.515Z,43.15
2023-06-25T08:11:47.442Z,43.13
2023-06-25T08:14:20.727Z,43.13
2023-06-25T08:16:53.475Z,43.06
2023-06-25T08:19:26.474Z,43.03
2023-06-25T08:21:59.616Z,43.12
2023-06-25T08:24:32.681Z,43.09
2023-06-25T08:27:05.565Z,43.12
2023-06-25T08:29:38.611Z,43.09
2023-06-25T08:32:11.800Z,43.09
2023-06-25T08:34:44.616Z,43.08
2023-06-25T08:37:18.943Z,43.07
2023-06-25T08:39:50.450Z,43.16
2023-06-25T08:42:23.688Z,43.10
2023-06-25T08:44:56.466Z,43.11
2023-06-25T08:47:29.801Z,43.17
2023-06-25T08:50:02.739Z,43.26
2023-06-25T08:52:35.653Z,43.28
2023-06-25T08:55:08.486Z,43.38
2023-06-25T08:57:41.510Z,43.42
2023-06-25T09:00:14.510Z,43.31
2023-06-25T09:02:47.600Z,43.10
2023-06-25T09:05:20.618Z,43.18
2023-06-25T09:07:53.562Z,43.28
2023-06-25T09:10:26.623Z,43.33
2023-06-25T09:12:59.713Z,43.40
2023-06-25T09:15:32.624Z,43.68
2023-06-25T09:18:05.750Z,43.74
2023-06-25T09:20:38.829Z,43.79
2023-06-25T09:23:11.580Z,43.83
2023-06-25T09:25:44.669Z,43.87
2023-06-25T09:28:17.648Z,43.75
2023-06-25T09:30:50.551Z,43.75
2023-06-25T09:33:23.661Z,43.73
2023-06-25T09:35:56.531Z,43.78
2023-06-25T09:38:29.848Z,43.66
2023-06-25T09:41:02.659Z,43.64
2023-06-25T09:43:35.921Z,43.69
2023-06-25T09:46:08.690Z,43.65
2023-06-25T09:48:41.787Z,43.72
2023-06-25T09:51:14.684Z,43.70
2023-06-25T09:53:47.718Z,43.68
2023-06-25T09:56:20.563Z,43.69
2023-06-25T09:58:53.672Z,43.66
2023-06-25T10:01:27.213Z,43.68
2023-06-25T10:04:00.966Z,43.73
2023-06-25T10:06:33.597Z,43.64
2023-06-25T10:09:06.956Z,43.63
2023-06-25T10:11:39.957Z,43.66
2023-06-25T10:14:12.936Z,43.65
2023-06-25T10:16:45.932Z,43.67
2023-06-25T10:19:18.809Z,43.64
2023-06-25T10:21:51.757Z,43.64
2023-06-25T10:24:24.797Z,43.66
2023-06-25T10:26:57.622Z,43.65
2023-06-25T10:29:30.735Z,43.67
2023-06-25T10:32:03.790Z,43.64
2023-06-25T10:34:36.769Z,43.70
2023-06-25T10:37:09.964Z,43.70
2023-06-25T10:39:42.812Z,43.66
2023-06-25T10:42:15.741Z,43.65
2023-06-25T10:44:48.984Z,43.67
2023-06-25T10:47:21.679Z,43.63
2023-06-25T10:49:54.776Z,43.62
2023-06-25T10:52:27.993Z,43.65
2023-06-25T10:55:00.699Z,43.63
2023-06-25T10:57:33.751Z,43.62
2023-06-25T11:00:06.890Z,43.64
2023-06-25T11:02:39.881Z,43.63
2023-06-25T11:05:12.837Z,43.62
2023-06-25T11:07:45.816Z,43.66
2023-06-25T11:10:18.759Z,43.65
2023-06-25T11:12:51.984Z,43.68
2023-06-25T11:15:25.077Z,43.68
2023-06-25T11:17:57.706Z,43.68
2023-06-25T11:20:31.168Z,43.67
2023-06-25T11:23:03.693Z,43.68
2023-06-25T11:25:37.246Z,43.63
2023-06-25T11:28:23.628Z,43.64
2023-06-25T11:30:56.996Z,43.66
2023-06-25T11:33:30.034Z,43.68
2023-06-25T11:36:02.700Z,43.67
2023-06-25T11:38:35.832Z,43.71
2023-06-25T11:41:23.117Z,43.73
2023-06-25T11:43:56.049Z,43.81
2023-06-25T11:46:28.999Z,43.82
2023-06-25T11:49:01.729Z,43.78
2023-06-25T11:51:35.029Z,43.79
2023-06-25T11:54:07.997Z,43.77
2023-06-25T11:56:41.144Z,43.79
2023-06-25T11:59:13.898Z,43.77
2023-06-25T12:01:47.151Z,43.78
2023-06-25T12:04:20.059Z,43.80
2023-06-25T12:06:52.771Z,43.84
2023-06-25T12:09:26.061Z,43.83
2023-06-25T12:11:59.065Z,43.93
2023-06-25T12:14:32.156Z,43.98
2023-06-25T12:17:05.062Z,44.01
2023-06-25T12:19:38.153Z,44.03
2023-06-25T12:22:10.774Z,44.07
2023-06-25T12:24:43.971Z,44.06
2023-06-25T12:27:16.912Z,44.06
2023-06-25T12:29:50.023Z,44.10
2023-06-25T12:32:23.327Z,44.19
2023-06-25T12:34:55.760Z,44.26
2023-06-25T12:37:29.040Z,44.25
2023-06-25T12:40:01.802Z,44.28
2023-06-25T12:42:35.174Z,44.39
2023-06-25T12:45:08.222Z,44.37
2023-06-25T12:47:41.179Z,44.38
2023-06-25T12:50:17.191Z,44.35
2023-06-25T12:52:49.806Z,44.42
2023-06-25T12:55:23.015Z,44.48
2023-06-25T12:57:55.993Z,44.53
2023-06-25T13:00:41.165Z,44.56
2023-06-25T13:03:01.944Z,44.50
2023-06-25T13:05:35.424Z,44.61
2023-06-25T13:08:22.140Z,44.53
2023-06-25T13:10:54.838Z,44.48
2023-06-25T13:13:28.148Z,44.41
2023-06-25T13:16:00.966Z,44.39
2023-06-25T13:18:34.006Z,44.33
2023-06-25T13:21:06.856Z,44.30
2023-06-25T13:23:40.115Z,44.25
2023-06-25T13:26:13.077Z,44.21
2023-06-25T13:28:46.216Z,44.19
2023-06-25T13:31:18.930Z,44.16
2023-06-25T13:33:52.079Z,44.12
2023-06-25T13:36:25.056Z,44.11
2023-06-25T13:38:58.200Z,44.06
2023-06-25T13:41:30.987Z,44.03
2023-06-25T13:44:04.199Z,44.00
2023-06-25T13:46:37.399Z,43.98
2023-06-25T13:49:11.170Z,43.97
2023-06-25T13:51:44.441Z,43.93
2023-06-25T13:54:18.186Z,43.89
2023-06-25T13:56:50.934Z,43.89
2023-06-25T13:59:24.161Z,43.89
2023-06-25T14:04:47.215Z,43.84
2023-06-25T14:07:19.917Z,43.85
2023-06-25T14:09:53.087Z,43.81
2023-06-25T14:12:25.935Z,43.83
2023-06-25T14:14:58.965Z,43.79
2023-06-25T14:17:31.998Z,43.80
2023-06-25T14:20:04.966Z,43.79
2023-06-25T14:22:37.941Z,43.78
2023-06-25T14:25:11.149Z,43.81
2023-06-25T14:27:44.097Z,43.81
2023-06-25T14:30:17.177Z,43.76
2023-06-25T14:32:49.976Z,43.76
2023-06-25T14:35:23.305Z,43.75
2023-06-25T14:37:55.977Z,43.72
2023-06-25T14:40:29.112Z,43.73
2023-06-25T14:43:02.008Z,43.72
2023-06-25T14:45:35.314Z,43.68
2023-06-25T14:48:08.239Z,43.87
2023-06-25T14:50:41.102Z,44.00
2023-06-25T14:53:13.987Z,44.15
2023-06-25T14:55:47.585Z,44.19
2023-06-25T14:58:20.173Z,44.29
2023-06-25T15:00:53.160Z,44.26
2023-06-25T15:03:29.689Z,44.23
2023-06-25T15:06:10.124Z,44.37
2023-06-25T15:08:32.134Z,44.10
2023-06-25T15:11:05.148Z,44.09
2023-06-25T15:13:38.160Z,44.10
2023-06-25T15:16:25.123Z,44.14
2023-06-25T15:18:58.232Z,44.22
2023-06-25T15:21:31.220Z,44.18
2023-06-25T15:24:04.025Z,44.33
2023-06-25T15:26:37.250Z,44.39
2023-06-25T15:29:10.025Z,44.40
2023-06-25T15:31:43.282Z,44.47
2023-06-25T15:34:16.052Z,44.56
2023-06-25T15:37:02.960Z,44.61
2023-06-25T15:39:36.176Z,44.67
2023-06-25T15:42:09.086Z,44.65
2023-06-25T15:44:42.239Z,44.64
2023-06-25T15:47:15.086Z,44.60
2023-06-25T15:49:48.345Z,44.62
2023-06-25T15:52:21.358Z,44.69
2023-06-25T15:54:54.364Z,44.78
2023-06-25T15:57:27.287Z,44.83
2023-06-25T16:00:00.515Z,44.75
2023-06-25T16:02:34.493Z,44.70
2023-06-25T16:05:07.398Z,44.62
2023-06-25T16:07:40.504Z,44.53
2023-06-25T16:10:13.070Z,44.52
2023-06-25T16:12:46.159Z,44.46
2023-06-25T16:15:19.093Z,44.44
2023-06-25T16:17:52.187Z,44.39
2023-06-25T16:20:25.424Z,44.35
2023-06-25T16:22:58.357Z,44.32
2023-06-25T16:25:31.220Z,44.39
2023-06-25T16:28:04.390Z,44.33
2023-06-25T16:30:37.436Z,44.38
2023-06-25T16:33:10.153Z,44.42
2023-06-25T16:35:43.966Z,44.46
2023-06-25T16:38:17.144Z,44.55
2023-06-25T16:40:50.516Z,44.66
2023-06-25T16:43:23.570Z,44.76
2023-06-25T16:45:56.520Z,44.79
2023-06-25T16:48:29.288Z,44.91
2023-06-25T16:51:02.150Z,44.83
2023-06-25T16:53:35.175Z,44.93
2023-06-25T16:56:08.282Z,44.96
2023-06-25T16:58:41.466Z,45.00
2023-06-25T17:01:14.455Z,44.94
2023-06-25T17:03:47.458Z,44.92
2023-06-25T17:06:20.286Z,44.98
2023-06-25T17:08:53.466Z,44.95
2023-06-25T17:11:26.372Z,44.95
2023-06-25T17:13:59.491Z,44.94
2023-06-25T17:16:32.524Z,44.92
2023-06-25T17:19:05.730Z,44.97
2023-06-25T17:21:39.574Z,45.05
2023-06-25T17:24:12.457Z,45.05
2023-06-25T17:26:45.462Z,45.01
2023-06-25T17:29:18.447Z,44.98
2023-06-25T17:31:51.559Z,44.92
2023-06-25T17:34:24.606Z,44.93
2023-06-25T17:36:57.495Z,44.94
2023-06-25T17:39:30.463Z,44.97
2023-06-25T17:42:03.205Z,44.90
2023-06-25T17:44:36.563Z,44.86
2023-06-25T17:47:10.215Z,44.87
2023-06-25T17:49:43.435Z,44.88
2023-06-25T17:52:16.268Z,44.84
2023-06-25T17:54:49.462Z,44.85
2023-06-25T17:57:22.251Z,44.82
2023-06-25T17:59:55.237Z,44.82
2023-06-25T18:02:28.609Z,44.85
2023-06-25T18:05:02.384Z,44.85
2023-06-25T18:07:34.347Z,44.84
2023-06-25T18:10:07.617Z,44.85
2023-06-25T18:12:40.283Z,44.84
2023-06-25T18:15:13.264Z,44.83
2023-06-25T18:17:47.084Z,44.85
2023-06-25T18:20:25.650Z,44.88
2023-06-25T18:22:58.605Z,44.86
2023-06-25T18:25:31.590Z,44.87
2023-06-25T18:28:04.580Z,44.81
2023-06-25T18:30:38.157Z,44.83
2023-06-25T18:33:13.192Z,44.81
2023-06-25T18:35:43.747Z,44.87
2023-06-25T18:38:16.294Z,44.86
2023-06-25T18:40:49.840Z,44.86
2023-06-25T18:43:23.632Z,44.91
2023-06-25T18:45:56.602Z,44.87
2023-06-25T18:48:29.452Z,44.90
2023-06-25T18:51:02.651Z,44.81
2023-06-25T18:53:35.414Z,44.76
2023-06-25T18:56:08.678Z,44.76
2023-06-25T18:58:41.517Z,44.72
2023-06-25T19:01:14.545Z,44.66
2023-06-25T19:03:47.493Z,44.66
2023-06-25T19:06:20.357Z,44.50
2023-06-25T19:08:53.576Z,44.64
2023-06-25T19:11:26.546Z,44.62
2023-06-25T19:13:59.453Z,44.62
2023-06-25T19:16:32.529Z,44.30
2023-06-25T19:19:05.457Z,44.04
2023-06-25T19:21:38.691Z,43.39
2023-06-25T19:24:11.355Z,43.26
2023-06-25T19:26:44.458Z,43.07
2023-06-25T19:29:17.352Z,43.18
2023-06-25T19:31:50.658Z,43.09
2023-06-25T19:34:23.517Z,42.75
2023-06-25T19:36:56.726Z,42.91
2023-06-25T19:39:29.457Z,42.67
2023-06-25T19:42:02.981Z,42.64
2023-06-25T19:44:36.883Z,42.45
2023-06-25T19:47:10.572Z,42.38
2023-06-25T19:49:43.734Z,42.27
2023-06-25T19:52:16.680Z,42.16
2023-06-25T19:54:49.571Z,42.23
2023-06-25T19:57:24.434Z,42.23
2023-06-25T19:59:57.891Z,42.32
2023-06-25T20:02:31.770Z,42.05
2023-06-25T20:05:04.743Z,41.62
2023-06-25T20:07:37.901Z,41.90
2023-06-25T20:10:10.429Z,41.82
2023-06-25T20:12:43.849Z,41.81
2023-06-25T20:15:16.461Z,41.13
2023-06-25T20:17:49.775Z,41.06
2023-06-25T20:20:22.553Z,41.03
2023-06-25T20:22:55.482Z,40.87
2023-06-25T20:25:28.577Z,40.27
2023-06-25T20:28:01.702Z,40.26
2023-06-25T20:30:35.152Z,39.90
2023-06-25T20:33:08.838Z,40.59
2023-06-25T20:35:41.894Z,40.58
2023-06-25T20:38:14.771Z,40.25
2023-06-25T20:40:47.744Z,39.81
2023-06-25T20:43:20.476Z,40.00
2023-06-25T20:45:53.605Z,39.69
2023-06-25T20:48:26.806Z,39.55
2023-06-25T20:50:59.729Z,40.27
2023-06-25T20:53:33.006Z,40.63
2023-06-25T20:56:06.519Z,40.08
2023-06-25T20:58:39.703Z,41.07
2023-06-25T21:01:12.629Z,40.49
2023-06-25T21:03:45.643Z,40.81
2023-06-25T21:06:18.598Z,40.93
2023-06-25T21:08:51.515Z,40.75
2023-06-25T21:11:24.692Z,40.42
2023-06-25T21:13:57.512Z,40.33
2023-06-25T21:16:30.736Z,40.12
2023-06-25T21:19:03.520Z,39.94
2023-06-25T21:21:36.886Z,39.97
2023-06-25T21:24:09.844Z,39.53
2023-06-25T21:26:56.814Z,39.54
2023-06-25T21:29:29.864Z,39.33
2023-06-25T21:32:02.806Z,39.22
2023-06-25T21:34:36.007Z,39.44
2023-06-25T21:37:09.852Z,39.31
2023-06-25T21:39:43.076Z,39.08
2023-06-25T21:42:17.831Z,39.71
2023-06-25T21:44:50.946Z,39.58
2023-06-25T21:47:23.974Z,39.88
2023-06-25T21:49:56.828Z,39.48
2023-06-25T21:52:30.131Z,39.63
2023-06-25T21:55:04.090Z,39.59
2023-06-25T21:57:37.978Z,39.37
2023-06-25T22:00:14.692Z,38.96
2023-06-25T22:02:48.133Z,39.51
2023-06-25T22:05:20.965Z,38.96
2023-06-25T22:07:54.070Z,39.59
2023-06-25T22:10:28.032Z,39.19
2023-06-25T22:13:01.008Z,39.08
2023-06-25T22:15:34.105Z,39.15
2023-06-25T22:18:07.993Z,39.41
2023-06-25T22:20:41.059Z,39.38
2023-06-25T22:23:14.920Z,39.13
2023-06-25T22:25:47.970Z,39.11
2023-06-25T22:28:21.034Z,39.30
2023-06-25T22:30:53.878Z,39.26
2023-06-25T22:33:27.221Z,39.09
2023-06-25T22:36:01.105Z,39.97
2023-06-25T22:38:34.968Z,39.38
2023-06-25T22:41:08.045Z,39.49
2023-06-25T22:43:40.983Z,39.62
2023-06-25T22:46:13.983Z,39.56
2023-06-25T22:48:47.098Z,39.30
2023-06-25T22:51:19.935Z,39.09
2023-06-25T22:53:53.050Z,39.13
2023-06-25T22:56:26.037Z,39.04
2023-06-25T22:58:59.113Z,38.94
2023-06-25T23:01:33.063Z,38.89
2023-06-25T23:04:06.300Z,38.76
2023-06-25T23:06:40.070Z,38.61
2023-06-25T23:09:12.945Z,38.54
2023-06-25T23:11:46.056Z,38.41
2023-06-25T23:14:18.944Z,38.65
2023-06-25T23:16:51.969Z,38.38
2023-06-25T23:19:25.087Z,38.34
2023-06-25T23:21:58.017Z,38.36
2023-06-25T23:24:31.030Z,38.35
2023-06-25T23:27:04.032Z,38.31
2023-06-25T23:29:37.173Z,38.36
2023-06-25T23:32:10.982Z,38.42
2023-06-25T23:34:44.188Z,38.93
2023-06-25T23:37:17.995Z,38.97
2023-06-25T23:39:51.069Z,38.93
2023-06-25T23:42:24.083Z,38.62
2023-06-25T23:44:56.897Z,38.64
2023-06-25T23:47:33.904Z,38.63
2023-06-25T23:50:07.193Z,38.54
2023-06-25T23:52:40.043Z,38.63
2023-06-25T23:55:13.057Z,38.78
2023-06-25T23:57:46.102Z,38.63
